Аэропорт: Алыкель. Норильск

ICAO: UOOO

METAR:
2022-06-26 11:00:00
UOOO 261100Z 02016MPS CAVOK 15/06 Q0995 R01/CLRD60 NOSIG RMK QFE732/0976
METAR:
2022-06-26 07:52:00
TAF UOOO 260752Z 2609/2709 02014G20MPS 9999 SCT016 BECMG 2612/2614 03009G14MPS FM261800 08006G11MPS 7000 -SHRA BKN016CB